createdAt,value
2018-12-23T00:00:16.339Z,28.40
2018-12-23T00:02:51.573Z,40.90
2018-12-23T00:05:20.048Z,19.87
2018-12-23T00:07:48.510Z,26.03
2018-12-23T00:10:17.013Z,28.27
2018-12-23T00:12:45.513Z,33.37
2018-12-23T00:15:14.060Z,35.10
2018-12-23T00:17:42.535Z,25.43
2018-12-23T00:20:11.046Z,35.40
2018-12-23T00:22:39.540Z,21.90
2018-12-23T00:25:08.385Z,24.80
2018-12-23T00:27:36.847Z,27.37
2018-12-23T00:30:07.095Z,34.33
2018-12-23T00:32:35.619Z,42.50
2018-12-23T00:35:04.293Z,41.50
2018-12-23T00:37:32.786Z,27.83
2018-12-23T00:40:01.581Z,25.03
2018-12-23T00:42:30.067Z,18.73
2018-12-23T00:44:58.667Z,27.37
2018-12-23T00:47:27.173Z,29.93
2018-12-23T00:49:55.640Z,25.63
2018-12-23T00:52:24.189Z,20.43
2018-12-23T00:54:52.635Z,28.83
2018-12-23T00:57:21.214Z,26.47
2018-12-23T00:59:49.733Z,41.87
2018-12-23T01:02:18.240Z,18.77
2018-12-23T01:04:46.736Z,34.37
2018-12-23T01:07:16.183Z,21.52
2018-12-23T01:09:44.801Z,23.57
2018-12-23T01:12:13.309Z,24.67
2018-12-23T01:14:41.793Z,27.30
2018-12-23T01:17:10.365Z,26.90
2018-12-23T01:19:38.889Z,23.27
2018-12-23T01:22:07.401Z,19.77
2018-12-23T01:24:35.906Z,30.57
2018-12-23T01:27:04.389Z,26.77
2018-12-23T01:29:32.895Z,38.63
2018-12-23T01:32:01.360Z,32.13
2018-12-23T01:34:36.992Z,33.97
2018-12-23T01:37:00.372Z,33.25
2018-12-23T01:39:29.108Z,21.10
2018-12-23T01:41:58.467Z,17.37
2018-12-23T01:44:27.215Z,32.47
2018-12-23T01:46:55.737Z,23.50
2018-12-23T01:49:24.211Z,20.10
2018-12-23T01:51:52.730Z,21.77
2018-12-23T01:54:21.411Z,34.57
2018-12-23T01:56:49.861Z,24.73
2018-12-23T01:59:18.345Z,28.00
2018-12-23T02:01:46.818Z,19.00
2018-12-23T02:04:15.338Z,27.87
2018-12-23T02:06:43.848Z,25.73
2018-12-23T02:09:12.937Z,19.47
2018-12-23T02:11:41.480Z,22.93
2018-12-23T02:14:10.639Z,31.47
2018-12-23T02:16:39.159Z,20.70
2018-12-23T02:19:07.664Z,28.90
2018-12-23T02:21:36.149Z,34.60
2018-12-23T02:24:05.477Z,53.27
2018-12-23T02:26:33.947Z,22.63
2018-12-23T02:29:03.374Z,33.93
2018-12-23T02:31:31.860Z,28.57
2018-12-23T02:34:00.339Z,18.97
2018-12-23T02:36:28.965Z,16.87
2018-12-23T02:38:57.747Z,20.33
2018-12-23T02:41:31.576Z,27.70
2018-12-23T02:43:56.964Z,28.07
2018-12-23T02:46:25.440Z,27.13
2018-12-23T02:48:54.150Z,34.73
2018-12-23T02:51:22.789Z,28.27
2018-12-23T02:53:51.257Z,33.17
2018-12-23T02:56:19.784Z,35.23
2018-12-23T02:58:48.326Z,35.33
2018-12-23T03:01:16.895Z,29.73
2018-12-23T03:03:45.368Z,28.60
2018-12-23T03:06:13.987Z,31.47
2018-12-23T03:08:42.509Z,29.83
2018-12-23T03:11:11.025Z,32.67
2018-12-23T03:13:39.565Z,25.33
2018-12-23T03:16:08.028Z,23.63
2018-12-23T03:18:36.508Z,21.87
2018-12-23T03:21:05.081Z,23.17
2018-12-23T03:23:33.580Z,29.63
2018-12-23T03:26:02.143Z,31.63
2018-12-23T03:28:30.679Z,26.83
2018-12-23T03:30:59.266Z,37.57
2018-12-23T03:33:27.868Z,26.17
2018-12-23T03:35:56.336Z,29.33
2018-12-23T03:38:24.815Z,18.53
2018-12-23T03:40:53.311Z,21.80
2018-12-23T03:43:21.882Z,27.13
2018-12-23T03:45:50.522Z,20.97
2018-12-23T03:48:19.036Z,19.07
2018-12-23T03:50:47.654Z,18.50
2018-12-23T03:53:16.158Z,17.83
2018-12-23T03:55:44.772Z,43.42
2018-12-23T03:58:13.313Z,25.63
2018-12-23T04:00:41.775Z,27.10
2018-12-23T04:03:10.264Z,25.33
2018-12-23T04:05:38.871Z,23.73
2018-12-23T04:08:07.377Z,23.63
2018-12-23T04:10:35.884Z,21.93
2018-12-23T04:13:05.165Z,20.10
2018-12-23T04:15:34.395Z,30.73
2018-12-23T04:18:02.915Z,20.07
2018-12-23T04:20:31.911Z,23.10
2018-12-23T04:23:00.720Z,34.47
2018-12-23T04:25:29.176Z,29.92
2018-12-23T04:27:57.668Z,36.07
2018-12-23T04:30:26.873Z,18.60
2018-12-23T04:32:55.366Z,36.87
2018-12-23T04:35:24.084Z,19.37
2018-12-23T04:37:52.576Z,41.73
2018-12-23T04:40:21.044Z,31.67
2018-12-23T04:42:49.570Z,25.53
2018-12-23T04:45:18.116Z,21.53
2018-12-23T04:47:46.637Z,41.37
2018-12-23T04:50:15.089Z,26.50
2018-12-23T04:52:43.607Z,19.60
2018-12-23T04:55:12.161Z,20.80
2018-12-23T04:57:40.669Z,26.33
2018-12-23T05:00:09.366Z,31.47
2018-12-23T05:02:37.885Z,34.13
2018-12-23T05:05:06.374Z,28.33
2018-12-23T05:07:36.958Z,22.80
2018-12-23T05:10:05.666Z,32.10
2018-12-23T05:12:34.187Z,21.23
2018-12-23T05:15:02.742Z,28.73
2018-12-23T05:17:31.281Z,28.90
2018-12-23T05:19:59.796Z,27.60
2018-12-23T05:22:28.379Z,26.60
2018-12-23T05:24:56.990Z,61.43
2018-12-23T05:27:25.500Z,29.83
2018-12-23T05:29:53.947Z,24.23
2018-12-23T05:32:22.470Z,29.93
2018-12-23T05:34:50.964Z,33.07
2018-12-23T05:37:20.184Z,32.98
2018-12-23T05:39:48.672Z,40.53
2018-12-23T05:42:17.199Z,35.23
2018-12-23T05:44:45.787Z,39.30
2018-12-23T05:47:14.300Z,28.05
2018-12-23T05:49:42.768Z,26.93
2018-12-23T05:52:11.403Z,37.90
2018-12-23T05:54:40.040Z,32.83
2018-12-23T05:57:09.208Z,41.70
2018-12-23T05:59:37.779Z,28.17
2018-12-23T06:02:06.349Z,46.33
2018-12-23T06:04:35.003Z,45.83
2018-12-23T06:07:03.515Z,46.27
2018-12-23T06:09:32.136Z,49.10
2018-12-23T06:12:00.624Z,47.20
2018-12-23T06:14:29.097Z,64.03
2018-12-23T06:16:57.651Z,66.43
2018-12-23T06:19:26.650Z,58.27
2018-12-23T06:22:28.647Z,60.30
2018-12-23T06:24:58.270Z,56.40
2018-12-23T06:27:27.889Z,78.07
2018-12-23T06:29:57.855Z,64.90
2018-12-23T06:32:27.727Z,82.90
2018-12-23T06:34:57.313Z,58.83
2018-12-23T06:37:27.298Z,74.50
2018-12-23T06:39:57.329Z,63.47
2018-12-23T06:42:27.634Z,76.00
2018-12-23T06:44:57.311Z,56.27
2018-12-23T06:47:26.955Z,83.60
2018-12-23T06:49:56.879Z,81.47
2018-12-23T06:52:26.865Z,74.20
2018-12-23T06:54:56.485Z,84.23
2018-12-23T06:57:26.159Z,75.30
2018-12-23T06:59:55.808Z,66.90
2018-12-23T07:02:25.996Z,88.85
2018-12-23T07:04:55.955Z,70.40
2018-12-23T07:07:25.543Z,79.13
2018-12-23T07:09:55.171Z,73.40
2018-12-23T07:12:25.092Z,65.50
2018-12-23T07:14:54.772Z,87.30
2018-12-23T07:17:24.739Z,102.00
2018-12-23T07:19:54.832Z,87.07
2018-12-23T07:22:24.665Z,69.53
2018-12-23T07:24:54.263Z,78.00
2018-12-23T07:27:24.606Z,85.03
2018-12-23T07:29:54.599Z,75.13
2018-12-23T07:32:25.880Z,65.30
2018-12-23T07:34:55.750Z,75.03
2018-12-23T07:37:27.655Z,74.30
2018-12-23T07:39:56.725Z,88.37
2018-12-23T07:42:26.672Z,73.60
2018-12-23T07:44:56.303Z,65.80
2018-12-23T07:47:25.945Z,84.47
2018-12-23T07:49:55.579Z,81.97
2018-12-23T07:52:25.160Z,120.00
2018-12-23T07:54:55.097Z,73.93
2018-12-23T07:57:24.695Z,77.90
2018-12-23T07:59:54.332Z,82.83
2018-12-23T08:02:23.949Z,87.73
2018-12-23T08:04:53.558Z,79.60
2018-12-23T08:07:23.472Z,84.60
2018-12-23T08:09:53.461Z,86.23
2018-12-23T08:12:23.056Z,74.33
2018-12-23T08:14:53.294Z,68.97
2018-12-23T08:17:23.267Z,91.93
2018-12-23T08:19:53.172Z,85.17
2018-12-23T08:22:23.211Z,68.17
2018-12-23T08:24:53.202Z,90.43
2018-12-23T08:27:23.308Z,69.93
2018-12-23T08:29:52.902Z,89.57
2018-12-23T08:32:22.554Z,98.70
2018-12-23T08:34:52.126Z,90.83
2018-12-23T08:37:22.123Z,88.87
2018-12-23T08:39:51.764Z,81.00
2018-12-23T08:42:21.759Z,82.23
2018-12-23T08:44:51.330Z,86.07
2018-12-23T08:47:20.987Z,84.20
2018-12-23T08:49:50.581Z,80.70
2018-12-23T08:52:20.608Z,81.75
2018-12-23T08:54:50.202Z,87.13
2018-12-23T08:57:19.957Z,76.60
2018-12-23T08:59:49.576Z,82.10
2018-12-23T09:02:19.544Z,84.70
2018-12-23T09:04:49.584Z,86.10
2018-12-23T09:07:19.592Z,81.10
2018-12-23T09:09:50.567Z,77.23
2018-12-23T09:12:20.545Z,91.53
2018-12-23T09:14:51.853Z,91.13
2018-12-23T09:17:21.820Z,83.43
2018-12-23T09:19:54.717Z,93.97
2018-12-23T09:22:24.384Z,83.40
2018-12-23T09:24:54.719Z,85.93
2018-12-23T09:27:24.707Z,90.93
2018-12-23T09:29:54.625Z,85.90
2018-12-23T09:32:24.265Z,94.32
2018-12-23T09:34:54.175Z,94.33
2018-12-23T09:37:24.124Z,88.33
2018-12-23T09:39:54.504Z,86.57
2018-12-23T09:42:24.406Z,81.40
2018-12-23T09:44:54.439Z,84.00
2018-12-23T09:47:24.167Z,81.67
2018-12-23T09:49:54.084Z,101.80
2018-12-23T09:52:23.682Z,79.93
2018-12-23T09:54:53.397Z,76.90
2018-12-23T09:57:23.935Z,96.20
2018-12-23T09:59:54.368Z,88.80
2018-12-23T10:02:24.821Z,80.60
2018-12-23T10:04:54.718Z,82.10
2018-12-23T10:07:24.438Z,76.40
2018-12-23T10:09:54.057Z,94.73
2018-12-23T10:12:24.029Z,92.60
2018-12-23T10:14:53.954Z,84.73
2018-12-23T10:17:24.213Z,96.30
2018-12-23T10:19:54.145Z,90.10
2018-12-23T10:22:23.811Z,88.93
2018-12-23T10:24:53.942Z,80.70
2018-12-23T10:27:23.826Z,98.03
2018-12-23T10:29:54.146Z,76.63
2018-12-23T10:32:23.968Z,92.30
2018-12-23T10:34:54.286Z,88.93
2018-12-23T10:37:24.257Z,81.00
2018-12-23T10:39:54.796Z,78.17
2018-12-23T10:42:24.409Z,84.87
2018-12-23T10:44:54.447Z,79.23
2018-12-23T10:47:25.498Z,86.87
2018-12-23T10:49:55.260Z,75.73
2018-12-23T10:52:25.000Z,69.90
2018-12-23T10:54:55.805Z,81.00
2018-12-23T10:57:25.429Z,84.97
2018-12-23T10:59:55.094Z,80.97
2018-12-23T11:02:25.615Z,81.27
2018-12-23T11:04:55.308Z,81.97
2018-12-23T11:07:24.969Z,84.37
2018-12-23T11:10:01.928Z,76.13
2018-12-23T11:12:26.584Z,90.20
2018-12-23T11:14:56.218Z,72.83
2018-12-23T11:17:27.363Z,75.33
2018-12-23T11:19:57.524Z,115.03
2018-12-23T11:22:27.244Z,71.27
2018-12-23T11:24:56.985Z,72.67
2018-12-23T11:27:27.057Z,77.57
2018-12-23T11:29:57.108Z,76.77
2018-12-23T11:32:27.191Z,74.33
2018-12-23T11:34:56.761Z,72.53
2018-12-23T11:37:26.984Z,79.80
2018-12-23T11:39:56.667Z,73.43
2018-12-23T11:42:26.553Z,62.20
2018-12-23T11:44:56.510Z,78.13
2018-12-23T11:47:26.564Z,70.13
2018-12-23T11:49:56.177Z,76.53
2018-12-23T11:52:25.747Z,78.43
2018-12-23T11:54:55.663Z,60.80
2018-12-23T11:57:25.567Z,71.73
2018-12-23T11:59:55.611Z,76.03
2018-12-23T12:02:25.221Z,70.40
2018-12-23T12:04:55.183Z,73.80
2018-12-23T12:07:25.110Z,69.00
2018-12-23T12:09:54.811Z,73.50
2018-12-23T12:12:24.850Z,63.93
2018-12-23T12:14:55.163Z,66.97
2018-12-23T12:17:25.351Z,64.63
2018-12-23T12:19:55.034Z,65.30
2018-12-23T12:22:25.007Z,71.70
2018-12-23T12:24:54.914Z,66.40
2018-12-23T12:27:24.619Z,80.80
2018-12-23T12:29:54.624Z,62.50
2018-12-23T12:32:24.635Z,66.83
2018-12-23T12:34:54.259Z,69.90
2018-12-23T12:37:23.879Z,73.77
2018-12-23T12:39:53.654Z,68.33
2018-12-23T12:42:24.226Z,65.50
2018-12-23T12:44:54.256Z,66.37
2018-12-23T12:47:24.004Z,74.23
2018-12-23T12:49:53.750Z,62.77
2018-12-23T12:52:23.521Z,57.00
2018-12-23T12:54:53.619Z,61.73
2018-12-23T12:57:24.347Z,63.23
2018-12-23T12:59:54.880Z,57.73
2018-12-23T13:02:24.569Z,62.37
2018-12-23T13:04:54.663Z,55.93
2018-12-23T13:07:24.620Z,91.40
2018-12-23T13:09:54.231Z,67.17
2018-12-23T13:12:24.325Z,66.07
2018-12-23T13:14:54.363Z,64.87
2018-12-23T13:17:24.411Z,69.57
2018-12-23T13:19:54.024Z,67.37
2018-12-23T13:22:25.651Z,66.53
2018-12-23T13:24:56.815Z,59.00
2018-12-23T13:27:26.407Z,64.63
2018-12-23T13:29:56.040Z,60.03
2018-12-23T13:32:25.713Z,63.63
2018-12-23T13:34:55.324Z,62.37
2018-12-23T13:37:24.992Z,74.30
2018-12-23T13:39:56.651Z,73.03
2018-12-23T13:42:52.166Z,67.15
2018-12-23T13:46:01.068Z,72.17
2018-12-23T13:49:01.129Z,73.70
2018-12-23T13:51:58.729Z,77.73
2018-12-23T13:55:36.701Z,76.07
2018-12-23T13:58:47.441Z,74.43
2018-12-23T14:02:09.693Z,80.17
2018-12-23T14:05:04.139Z,96.57
2018-12-23T14:08:16.545Z,193.53
2018-12-23T14:11:24.160Z,158.30
2018-12-23T14:13:53.780Z,93.80
2018-12-23T14:16:24.716Z,146.53
2018-12-23T14:18:54.631Z,105.33
2018-12-23T14:21:24.260Z,73.10
2018-12-23T14:23:54.139Z,68.27
2018-12-23T14:26:24.330Z,75.27
2018-12-23T14:28:54.044Z,75.33
2018-12-23T14:31:24.683Z,66.90
2018-12-23T14:33:54.277Z,73.37
2018-12-23T14:36:23.930Z,74.40
2018-12-23T14:38:55.611Z,75.40
2018-12-23T14:41:25.403Z,69.83
2018-12-23T14:43:55.027Z,78.47
2018-12-23T14:46:25.952Z,75.10
2018-12-23T14:48:55.930Z,72.00
2018-12-23T14:51:25.553Z,76.93
2018-12-23T14:53:55.677Z,62.50
2018-12-23T14:56:25.297Z,76.67
2018-12-23T14:58:56.317Z,63.10
2018-12-23T15:01:25.914Z,72.83
2018-12-23T15:03:56.201Z,68.10
2018-12-23T15:06:26.523Z,62.50
2018-12-23T15:08:56.374Z,59.17
2018-12-23T15:11:26.199Z,73.53
2018-12-23T15:13:55.816Z,72.70
2018-12-23T15:16:25.558Z,62.40
2018-12-23T15:18:55.886Z,82.90
2018-12-23T15:21:25.461Z,82.47
2018-12-23T15:23:55.038Z,68.07
2018-12-23T15:26:24.636Z,81.07
2018-12-23T15:28:54.585Z,73.10
2018-12-23T15:31:24.272Z,63.15
2018-12-23T15:33:53.891Z,60.90
2018-12-23T15:36:24.332Z,59.60
2018-12-23T15:38:54.294Z,64.30
2018-12-23T15:41:24.248Z,58.17
2018-12-23T15:43:54.421Z,62.07
2018-12-23T15:46:24.041Z,59.13
2018-12-23T15:48:53.641Z,64.10
2018-12-23T15:51:23.231Z,52.70
2018-12-23T15:53:53.091Z,54.37
2018-12-23T15:56:22.724Z,61.17
2018-12-23T15:58:52.320Z,59.27
2018-12-23T16:01:23.792Z,57.83
2018-12-23T16:03:53.372Z,72.73
2018-12-23T16:06:23.681Z,67.93
2018-12-23T16:08:53.731Z,68.23
2018-12-23T16:11:23.614Z,68.40
2018-12-23T16:13:54.861Z,69.13
2018-12-23T16:16:24.436Z,60.67
2018-12-23T16:18:55.541Z,57.13
2018-12-23T16:21:26.445Z,79.20
2018-12-23T16:23:56.043Z,63.80
2018-12-23T16:26:25.677Z,67.60
2018-12-23T16:28:55.848Z,71.20
2018-12-23T16:31:25.910Z,65.03
2018-12-23T16:33:56.338Z,63.20
2018-12-23T16:36:26.242Z,68.13
2018-12-23T16:38:56.126Z,63.60
2018-12-23T16:41:27.145Z,60.23
2018-12-23T16:43:56.777Z,60.50
2018-12-23T16:46:26.927Z,67.70
2018-12-23T16:48:57.326Z,60.50
2018-12-23T16:51:27.310Z,52.97
2018-12-23T16:53:56.902Z,56.90
2018-12-23T16:56:26.515Z,60.43
2018-12-23T16:58:56.135Z,55.10
2018-12-23T17:01:25.844Z,47.67
2018-12-23T17:03:55.469Z,47.80
2018-12-23T17:06:25.871Z,50.33
2018-12-23T17:08:55.598Z,47.50
2018-12-23T17:11:25.218Z,49.00
2018-12-23T17:13:55.004Z,49.70
2018-12-23T17:16:24.915Z,51.10
2018-12-23T17:18:54.558Z,55.50
2018-12-23T17:21:24.521Z,46.30
2018-12-23T17:23:54.869Z,42.90
2018-12-23T17:26:24.783Z,51.00
2018-12-23T17:28:54.800Z,42.27
2018-12-23T17:31:24.435Z,41.97
2018-12-23T17:33:54.049Z,50.50
2018-12-23T17:36:24.037Z,42.33
2018-12-23T17:38:53.971Z,41.83
2018-12-23T17:41:23.775Z,44.53
2018-12-23T17:43:54.120Z,39.97
2018-12-23T17:46:23.730Z,34.50
2018-12-23T17:48:53.651Z,41.13
2018-12-23T17:51:23.440Z,44.07
2018-12-23T17:53:53.577Z,38.50
2018-12-23T17:56:23.644Z,34.10
2018-12-23T17:58:53.616Z,31.73
2018-12-23T18:01:23.478Z,37.13
2018-12-23T18:03:53.478Z,31.03
2018-12-23T18:06:25.105Z,36.40
2018-12-23T18:08:54.510Z,32.50
2018-12-23T18:11:24.487Z,36.80
2018-12-23T18:13:54.336Z,42.67
2018-12-23T18:16:23.977Z,35.67
2018-12-23T18:18:54.468Z,38.27
2018-12-23T18:21:24.649Z,37.43
2018-12-23T18:23:54.685Z,45.57
2018-12-23T18:26:24.833Z,44.67
2018-12-23T18:28:55.105Z,42.77
2018-12-23T18:31:25.086Z,32.40
2018-12-23T18:33:54.825Z,33.13
2018-12-23T18:36:25.452Z,43.03
2018-12-23T18:38:56.583Z,34.63
2018-12-23T18:41:26.373Z,30.80
2018-12-23T18:43:56.372Z,31.03
2018-12-23T18:46:25.996Z,30.43
2018-12-23T18:48:55.902Z,27.07
2018-12-23T18:51:25.843Z,34.23
2018-12-23T18:53:56.117Z,31.87
2018-12-23T18:56:41.497Z,26.70
2018-12-23T18:59:11.977Z,30.13
2018-12-23T19:01:45.522Z,39.97
2018-12-23T19:04:15.610Z,32.90
2018-12-23T19:06:45.871Z,25.85
2018-12-23T19:09:47.549Z,33.47
2018-12-23T19:13:00.599Z,34.60
2018-12-23T19:15:58.890Z,25.93
2018-12-23T19:19:04.963Z,26.57
2018-12-23T19:22:15.560Z,26.27
2018-12-23T19:25:05.998Z,31.00
2018-12-23T19:28:13.629Z,31.60
2018-12-23T19:31:28.573Z,24.17
2018-12-23T19:34:34.497Z,23.23
2018-12-23T19:37:41.129Z,17.23
2018-12-23T19:40:56.919Z,18.67
2018-12-23T19:44:25.836Z,7.07
2018-12-23T19:47:25.514Z,10.80
2018-12-23T19:50:14.643Z,12.90
2018-12-23T19:53:33.318Z,13.33
2018-12-23T19:56:40.999Z,11.17
2018-12-23T20:00:02.754Z,11.47
2018-12-23T20:03:11.166Z,12.07
2018-12-23T20:06:46.115Z,9.00
2018-12-23T20:09:39.402Z,11.33
2018-12-23T20:12:45.261Z,10.00
2018-12-23T20:16:06.016Z,7.57
2018-12-23T20:19:12.060Z,10.77
2018-12-23T20:22:25.276Z,9.43
2018-12-23T20:25:43.859Z,11.57
2018-12-23T20:28:52.185Z,9.73
2018-12-23T20:31:47.024Z,12.67
2018-12-23T20:34:57.474Z,9.40
2018-12-23T20:38:07.925Z,13.27
2018-12-23T20:41:14.090Z,12.70
2018-12-23T20:44:26.874Z,11.33
2018-12-23T20:47:25.267Z,13.77
2018-12-23T20:50:29.023Z,10.93
2018-12-23T20:53:45.444Z,15.40
2018-12-23T20:57:06.476Z,11.27
2018-12-23T21:00:22.353Z,9.50
2018-12-23T21:03:32.117Z,12.63
2018-12-23T21:06:41.518Z,15.20
2018-12-23T21:09:47.113Z,15.33
2018-12-23T21:12:56.677Z,18.40
2018-12-23T21:16:09.085Z,18.90
2018-12-23T21:19:18.565Z,15.60
2018-12-23T21:22:29.287Z,16.95
2018-12-23T21:25:27.450Z,16.00
2018-12-23T21:28:14.147Z,16.40
2018-12-23T21:31:20.760Z,15.27
2018-12-23T21:34:43.435Z,13.57
2018-12-23T21:37:36.798Z,14.40
2018-12-23T21:41:01.371Z,11.37
2018-12-23T21:43:58.899Z,11.27
2018-12-23T21:47:07.797Z,11.43
2018-12-23T21:50:45.920Z,6.63
2018-12-23T21:54:02.703Z,12.00
2018-12-23T21:57:24.145Z,11.17
2018-12-23T22:00:36.290Z,11.23
2018-12-23T22:03:50.720Z,11.93
2018-12-23T22:07:02.494Z,12.87
2018-12-23T22:10:04.752Z,12.27
2018-12-23T22:13:24.334Z,20.80
2018-12-23T22:15:55.116Z,12.90
2018-12-23T22:18:25.699Z,17.47
2018-12-23T22:20:55.889Z,11.03
2018-12-23T22:23:26.689Z,13.83
2018-12-23T22:25:57.799Z,19.23
2018-12-23T22:28:29.163Z,16.43
2018-12-23T22:30:59.078Z,23.20
2018-12-23T22:33:28.756Z,16.30
2018-12-23T22:35:58.395Z,17.12
2018-12-23T22:38:28.405Z,12.70
2018-12-23T22:41:12.944Z,14.73
2018-12-23T22:43:42.760Z,15.10
2018-12-23T22:46:12.390Z,16.60
2018-12-23T22:48:42.615Z,14.33
2018-12-23T22:51:12.224Z,13.97
2018-12-23T22:53:41.834Z,17.07
2018-12-23T22:56:11.871Z,12.37
2018-12-23T22:58:41.491Z,14.20
2018-12-23T23:01:11.242Z,12.67
2018-12-23T23:03:41.030Z,13.70
2018-12-23T23:06:10.702Z,18.63
2018-12-23T23:08:40.713Z,13.37
2018-12-23T23:11:10.355Z,17.43
2018-12-23T23:13:39.998Z,16.97
2018-12-23T23:16:09.969Z,17.07
2018-12-23T23:18:39.670Z,20.63
2018-12-23T23:21:09.676Z,16.57
2018-12-23T23:23:39.240Z,19.00
2018-12-23T23:26:09.197Z,23.90
2018-12-23T23:28:39.934Z,21.57
2018-12-23T23:31:10.718Z,23.30
2018-12-23T23:33:40.719Z,24.13
2018-12-23T23:36:10.751Z,22.80
2018-12-23T23:38:40.885Z,19.33
2018-12-23T23:41:11.147Z,20.23
2018-12-23T23:43:41.171Z,30.10
2018-12-23T23:46:11.391Z,24.27
2018-12-23T23:48:41.021Z,23.33
2018-12-23T23:51:10.643Z,23.33
2018-12-23T23:53:40.622Z,26.33
2018-12-23T23:56:10.583Z,31.77
2018-12-23T23:58:40.627Z,24.23
